sensor_id;sensor_type;location;lat;lon;timestamp;temperature;humidity
6377;DHT22;3221;48.858;10.128;2023-08-06T00:00:57;15.00;99.90
6377;DHT22;3221;48.858;10.128;2023-08-06T00:03:24;15.10;99.90
6377;DHT22;3221;48.858;10.128;2023-08-06T00:05:51;15.10;99.90
6377;DHT22;3221;48.858;10.128;2023-08-06T00:08:18;15.00;99.90
6377;DHT22;3221;48.858;10.128;2023-08-06T00:10:47;15.00;99.90
6377;DHT22;3221;48.858;10.128;2023-08-06T00:13:14;15.00;99.90
6377;DHT22;3221;48.858;10.128;2023-08-06T00:15:41;15.10;99.90
6377;DHT22;3221;48.858;10.128;2023-08-06T00:18:08;15.10;99.90
6377;DHT22;3221;48.858;10.128;2023-08-06T00:20:35;15.00;99.90
6377;DHT22;3221;48.858;10.128;2023-08-06T00:23:02;15.00;99.90
6377;DHT22;3221;48.858;10.128;2023-08-06T00:25:29;15.00;99.90
6377;DHT22;3221;48.858;10.128;2023-08-06T00:27:56;15.00;99.90
6377;DHT22;3221;48.858;10.128;2023-08-06T00:30:23;15.00;99.90
6377;DHT22;3221;48.858;10.128;2023-08-06T00:32:50;14.90;99.90
6377;DHT22;3221;48.858;10.128;2023-08-06T00:35:17;14.90;99.90
6377;DHT22;3221;48.858;10.128;2023-08-06T00:37:44;14.90;99.90
6377;DHT22;3221;48.858;10.128;2023-08-06T00:40:10;14.90;99.90
6377;DHT22;3221;48.858;10.128;2023-08-06T00:42:37;15.00;99.90
6377;DHT22;3221;48.858;10.128;2023-08-06T00:45:05;15.00;99.90
6377;DHT22;3221;48.858;10.128;2023-08-06T00:47:32;15.00;99.90
6377;DHT22;3221;48.858;10.128;2023-08-06T00:49:59;15.00;99.90
6377;DHT22;3221;48.858;10.128;2023-08-06T00:52:27;15.00;99.90
6377;DHT22;3221;48.858;10.128;2023-08-06T00:54:54;15.00;99.90
6377;DHT22;3221;48.858;10.128;2023-08-06T00:57:24;14.90;99.90
6377;DHT22;3221;48.858;10.128;2023-08-06T00:59:52;14.90;99.90
6377;DHT22;3221;48.858;10.128;2023-08-06T01:02:20;15.00;99.90
6377;DHT22;3221;48.858;10.128;2023-08-06T01:04:47;14.90;99.90
6377;DHT22;3221;48.858;10.128;2023-08-06T01:10:19;14.90;99.90
6377;DHT22;3221;48.858;10.128;2023-08-06T01:13:03;14.90;99.90
6377;DHT22;3221;48.858;10.128;2023-08-06T01:15:37;14.90;99.90
6377;DHT22;3221;48.858;10.128;2023-08-06T01:18:06;14.90;99.90
6377;DHT22;3221;48.858;10.128;2023-08-06T01:20:33;14.80;99.90
6377;DHT22;3221;48.858;10.128;2023-08-06T01:23:00;14.90;99.90
6377;DHT22;3221;48.858;10.128;2023-08-06T01:25:33;14.80;99.90
6377;DHT22;3221;48.858;10.128;2023-08-06T01:28:23;14.70;99.90
6377;DHT22;3221;48.858;10.128;2023-08-06T01:30:55;15.00;99.90
6377;DHT22;3221;48.858;10.128;2023-08-06T01:33:28;14.80;99.90
6377;DHT22;3221;48.858;10.128;2023-08-06T01:35:57;14.90;99.90
6377;DHT22;3221;48.858;10.128;2023-08-06T01:38:24;14.90;99.90
6377;DHT22;3221;48.858;10.128;2023-08-06T01:40:52;14.90;99.90
6377;DHT22;3221;48.858;10.128;2023-08-06T01:43:19;14.90;99.90
6377;DHT22;3221;48.858;10.128;2023-08-06T01:45:46;14.80;99.90
6377;DHT22;3221;48.858;10.128;2023-08-06T01:48:13;14.70;99.90
6377;DHT22;3221;48.858;10.128;2023-08-06T01:50:40;14.90;99.90
6377;DHT22;3221;48.858;10.128;2023-08-06T01:53:07;14.90;99.90
6377;DHT22;3221;48.858;10.128;2023-08-06T01:55:34;15.00;99.90
6377;DHT22;3221;48.858;10.128;2023-08-06T01:58:01;14.80;99.90
6377;DHT22;3221;48.858;10.128;2023-08-06T02:00:28;14.80;99.90
6377;DHT22;3221;48.858;10.128;2023-08-06T02:02:55;14.80;99.90
6377;DHT22;3221;48.858;10.128;2023-08-06T02:05:22;15.00;99.90
6377;DHT22;3221;48.858;10.128;2023-08-06T02:07:49;14.70;99.90
6377;DHT22;3221;48.858;10.128;2023-08-06T02:10:16;14.70;99.90
6377;DHT22;3221;48.858;10.128;2023-08-06T02:12:43;14.80;99.90
6377;DHT22;3221;48.858;10.128;2023-08-06T02:15:10;14.70;99.90
6377;DHT22;3221;48.858;10.128;2023-08-06T02:17:37;14.70;99.90
6377;DHT22;3221;48.858;10.128;2023-08-06T02:20:05;14.90;99.90
6377;DHT22;3221;48.858;10.128;2023-08-06T02:22:32;14.70;99.90
6377;DHT22;3221;48.858;10.128;2023-08-06T02:25:00;14.70;99.90
6377;DHT22;3221;48.858;10.128;2023-08-06T02:27:27;14.60;99.90
6377;DHT22;3221;48.858;10.128;2023-08-06T02:29:53;14.70;99.90
6377;DHT22;3221;48.858;10.128;2023-08-06T02:32:21;14.70;99.90
6377;DHT22;3221;48.858;10.128;2023-08-06T02:34:48;14.70;99.90
6377;DHT22;3221;48.858;10.128;2023-08-06T02:37:15;14.80;99.90
6377;DHT22;3221;48.858;10.128;2023-08-06T02:39:42;14.80;99.90
6377;DHT22;3221;48.858;10.128;2023-08-06T02:42:11;14.60;99.90
6377;DHT22;3221;48.858;10.128;2023-08-06T02:44:39;14.70;99.90
6377;DHT22;3221;48.858;10.128;2023-08-06T02:47:06;14.70;99.90
6377;DHT22;3221;48.858;10.128;2023-08-06T02:49:33;14.70;99.90
6377;DHT22;3221;48.858;10.128;2023-08-06T02:51:59;14.60;99.90
6377;DHT22;3221;48.858;10.128;2023-08-06T02:54:27;14.70;99.90
6377;DHT22;3221;48.858;10.128;2023-08-06T02:56:54;14.70;99.90
6377;DHT22;3221;48.858;10.128;2023-08-06T02:59:26;14.80;99.90
6377;DHT22;3221;48.858;10.128;2023-08-06T03:02:12;14.60;99.90
6377;DHT22;3221;48.858;10.128;2023-08-06T03:05:05;14.70;99.90
6377;DHT22;3221;48.858;10.128;2023-08-06T03:07:37;14.80;99.90
6377;DHT22;3221;48.858;10.128;2023-08-06T03:10:11;14.80;99.90
6377;DHT22;3221;48.858;10.128;2023-08-06T03:12:40;14.60;99.90
6377;DHT22;3221;48.858;10.128;2023-08-06T03:15:08;14.70;99.90
6377;DHT22;3221;48.858;10.128;2023-08-06T03:17:35;14.70;99.90
6377;DHT22;3221;48.858;10.128;2023-08-06T03:20:04;14.90;99.90
6377;DHT22;3221;48.858;10.128;2023-08-06T03:22:32;14.70;99.90
6377;DHT22;3221;48.858;10.128;2023-08-06T03:25:00;14.60;99.90
6377;DHT22;3221;48.858;10.128;2023-08-06T03:27:27;14.70;99.90
6377;DHT22;3221;48.858;10.128;2023-08-06T03:29:54;14.80;99.90
6377;DHT22;3221;48.858;10.128;2023-08-06T03:32:24;14.70;99.90
6377;DHT22;3221;48.858;10.128;2023-08-06T03:34:52;14.70;99.90
6377;DHT22;3221;48.858;10.128;2023-08-06T03:37:21;14.80;99.90
6377;DHT22;3221;48.858;10.128;2023-08-06T03:39:50;14.60;99.90
6377;DHT22;3221;48.858;10.128;2023-08-06T03:42:17;14.80;99.90
6377;DHT22;3221;48.858;10.128;2023-08-06T03:44:44;14.80;99.90
6377;DHT22;3221;48.858;10.128;2023-08-06T03:47:11;14.90;99.90
6377;DHT22;3221;48.858;10.128;2023-08-06T03:49:38;14.80;99.90
6377;DHT22;3221;48.858;10.128;2023-08-06T03:52:07;14.90;99.90
6377;DHT22;3221;48.858;10.128;2023-08-06T03:54:34;14.80;99.90
6377;DHT22;3221;48.858;10.128;2023-08-06T03:57:01;15.00;99.90
6377;DHT22;3221;48.858;10.128;2023-08-06T03:59:28;14.80;99.90
6377;DHT22;3221;48.858;10.128;2023-08-06T04:01:56;14.80;99.90
6377;DHT22;3221;48.858;10.128;2023-08-06T04:04:23;14.80;99.90
6377;DHT22;3221;48.858;10.128;2023-08-06T04:06:50;14.60;99.90
6377;DHT22;3221;48.858;10.128;2023-08-06T04:09:17;14.60;99.90
6377;DHT22;3221;48.858;10.128;2023-08-06T04:11:44;14.60;99.90
6377;DHT22;3221;48.858;10.128;2023-08-06T04:14:11;14.70;99.90
6377;DHT22;3221;48.858;10.128;2023-08-06T04:16:37;14.70;99.90
6377;DHT22;3221;48.858;10.128;2023-08-06T04:19:04;14.70;99.90
6377;DHT22;3221;48.858;10.128;2023-08-06T04:21:32;14.70;99.90
6377;DHT22;3221;48.858;10.128;2023-08-06T04:24:00;14.70;99.90
6377;DHT22;3221;48.858;10.128;2023-08-06T04:26:26;14.80;99.90
6377;DHT22;3221;48.858;10.128;2023-08-06T04:28:53;14.60;99.90
6377;DHT22;3221;48.858;10.128;2023-08-06T04:31:21;14.60;99.90
6377;DHT22;3221;48.858;10.128;2023-08-06T04:33:48;14.70;99.90
6377;DHT22;3221;48.858;10.128;2023-08-06T04:36:16;14.40;99.90
6377;DHT22;3221;48.858;10.128;2023-08-06T04:38:44;14.50;99.90
6377;DHT22;3221;48.858;10.128;2023-08-06T04:41:15;14.50;99.90
6377;DHT22;3221;48.858;10.128;2023-08-06T04:43:42;14.60;99.90
6377;DHT22;3221;48.858;10.128;2023-08-06T04:46:09;14.60;99.90
6377;DHT22;3221;48.858;10.128;2023-08-06T04:48:36;14.50;99.90
6377;DHT22;3221;48.858;10.128;2023-08-06T04:51:03;14.60;99.90
6377;DHT22;3221;48.858;10.128;2023-08-06T04:53:30;14.70;99.90
6377;DHT22;3221;48.858;10.128;2023-08-06T04:55:57;14.60;99.90
6377;DHT22;3221;48.858;10.128;2023-08-06T04:58:24;14.70;99.90
6377;DHT22;3221;48.858;10.128;2023-08-06T05:00:50;14.60;99.90
6377;DHT22;3221;48.858;10.128;2023-08-06T05:03:17;14.80;99.90
6377;DHT22;3221;48.858;10.128;2023-08-06T05:05:46;14.80;99.90
6377;DHT22;3221;48.858;10.128;2023-08-06T05:08:16;14.70;99.90
6377;DHT22;3221;48.858;10.128;2023-08-06T05:10:45;14.70;99.90
6377;DHT22;3221;48.858;10.128;2023-08-06T05:13:12;14.70;99.90
6377;DHT22;3221;48.858;10.128;2023-08-06T05:15:39;14.80;99.90
6377;DHT22;3221;48.858;10.128;2023-08-06T05:18:09;14.70;99.90
6377;DHT22;3221;48.858;10.128;2023-08-06T05:20:37;14.70;99.90
6377;DHT22;3221;48.858;10.128;2023-08-06T05:23:04;14.60;99.90
6377;DHT22;3221;48.858;10.128;2023-08-06T05:25:31;14.60;99.90
6377;DHT22;3221;48.858;10.128;2023-08-06T05:27:58;14.60;99.90
6377;DHT22;3221;48.858;10.128;2023-08-06T05:30:26;14.50;99.90
6377;DHT22;3221;48.858;10.128;2023-08-06T05:32:53;14.50;99.90
6377;DHT22;3221;48.858;10.128;2023-08-06T05:35:21;14.50;99.90
6377;DHT22;3221;48.858;10.128;2023-08-06T05:37:48;14.50;99.90
6377;DHT22;3221;48.858;10.128;2023-08-06T05:40:15;14.50;99.90
6377;DHT22;3221;48.858;10.128;2023-08-06T05:42:42;14.40;99.90
6377;DHT22;3221;48.858;10.128;2023-08-06T05:45:09;14.60;99.90
6377;DHT22;3221;48.858;10.128;2023-08-06T05:47:36;14.50;99.90
6377;DHT22;3221;48.858;10.128;2023-08-06T05:50:04;14.50;99.90
6377;DHT22;3221;48.858;10.128;2023-08-06T05:52:31;14.60;99.90
6377;DHT22;3221;48.858;10.128;2023-08-06T05:54:58;14.50;99.90
6377;DHT22;3221;48.858;10.128;2023-08-06T05:57:24;14.40;99.90
6377;DHT22;3221;48.858;10.128;2023-08-06T05:59:51;14.40;99.90
6377;DHT22;3221;48.858;10.128;2023-08-06T06:02:18;14.50;99.90
6377;DHT22;3221;48.858;10.128;2023-08-06T06:04:45;14.40;99.90
6377;DHT22;3221;48.858;10.128;2023-08-06T06:07:12;14.30;99.90
6377;DHT22;3221;48.858;10.128;2023-08-06T06:09:40;14.40;99.90
6377;DHT22;3221;48.858;10.128;2023-08-06T06:12:07;14.40;99.90
6377;DHT22;3221;48.858;10.128;2023-08-06T06:14:34;14.40;99.90
6377;DHT22;3221;48.858;10.128;2023-08-06T06:17:01;14.30;99.90
6377;DHT22;3221;48.858;10.128;2023-08-06T06:19:28;14.40;99.90
6377;DHT22;3221;48.858;10.128;2023-08-06T06:21:55;14.40;99.90
6377;DHT22;3221;48.858;10.128;2023-08-06T06:24:24;14.40;99.90
6377;DHT22;3221;48.858;10.128;2023-08-06T06:26:51;14.40;99.90
6377;DHT22;3221;48.858;10.128;2023-08-06T06:29:18;14.30;99.90
6377;DHT22;3221;48.858;10.128;2023-08-06T06:31:45;14.40;99.90
6377;DHT22;3221;48.858;10.128;2023-08-06T06:34:12;14.30;99.90
6377;DHT22;3221;48.858;10.128;2023-08-06T06:36:39;14.30;99.90
6377;DHT22;3221;48.858;10.128;2023-08-06T06:39:06;14.40;99.90
6377;DHT22;3221;48.858;10.128;2023-08-06T06:41:35;14.30;99.90
6377;DHT22;3221;48.858;10.128;2023-08-06T06:44:10;14.30;99.90
6377;DHT22;3221;48.858;10.128;2023-08-06T06:46:37;14.30;99.90
6377;DHT22;3221;48.858;10.128;2023-08-06T06:49:04;14.40;99.90
6377;DHT22;3221;48.858;10.128;2023-08-06T06:51:31;14.40;99.90
6377;DHT22;3221;48.858;10.128;2023-08-06T06:53:58;14.40;99.90
6377;DHT22;3221;48.858;10.128;2023-08-06T06:56:25;14.30;99.90
6377;DHT22;3221;48.858;10.128;2023-08-06T06:58:52;14.50;99.90
6377;DHT22;3221;48.858;10.128;2023-08-06T07:01:19;14.30;99.90
6377;DHT22;3221;48.858;10.128;2023-08-06T07:03:46;14.20;99.90
6377;DHT22;3221;48.858;10.128;2023-08-06T07:06:13;14.30;99.90
6377;DHT22;3221;48.858;10.128;2023-08-06T07:08:42;14.30;99.90
6377;DHT22;3221;48.858;10.128;2023-08-06T07:11:09;14.20;99.90
6377;DHT22;3221;48.858;10.128;2023-08-06T07:13:36;14.20;99.90
6377;DHT22;3221;48.858;10.128;2023-08-06T07:16:03;14.30;99.90
6377;DHT22;3221;48.858;10.128;2023-08-06T07:18:30;14.20;99.90
6377;DHT22;3221;48.858;10.128;2023-08-06T07:20:57;14.20;99.90
6377;DHT22;3221;48.858;10.128;2023-08-06T07:23:25;14.20;99.90
6377;DHT22;3221;48.858;10.128;2023-08-06T07:25:52;14.20;99.90
6377;DHT22;3221;48.858;10.128;2023-08-06T07:28:19;14.40;99.90
6377;DHT22;3221;48.858;10.128;2023-08-06T07:30:47;14.30;99.90
6377;DHT22;3221;48.858;10.128;2023-08-06T07:33:14;14.30;99.90
6377;DHT22;3221;48.858;10.128;2023-08-06T07:35:41;14.30;99.90
6377;DHT22;3221;48.858;10.128;2023-08-06T07:38:10;14.30;99.90
6377;DHT22;3221;48.858;10.128;2023-08-06T07:40:36;14.30;99.90
6377;DHT22;3221;48.858;10.128;2023-08-06T07:43:04;14.30;99.90
6377;DHT22;3221;48.858;10.128;2023-08-06T07:45:35;14.50;99.90
6377;DHT22;3221;48.858;10.128;2023-08-06T07:48:03;14.30;99.90
6377;DHT22;3221;48.858;10.128;2023-08-06T07:50:30;14.30;99.90
6377;DHT22;3221;48.858;10.128;2023-08-06T07:52:58;14.20;99.90
6377;DHT22;3221;48.858;10.128;2023-08-06T07:55:25;14.30;99.90
6377;DHT22;3221;48.858;10.128;2023-08-06T07:57:53;14.30;99.90
6377;DHT22;3221;48.858;10.128;2023-08-06T08:00:20;14.30;99.90
6377;DHT22;3221;48.858;10.128;2023-08-06T08:02:47;14.30;99.90
6377;DHT22;3221;48.858;10.128;2023-08-06T08:05:14;14.30;99.90
6377;DHT22;3221;48.858;10.128;2023-08-06T08:07:41;14.30;99.90
6377;DHT22;3221;48.858;10.128;2023-08-06T08:10:08;14.30;99.90
6377;DHT22;3221;48.858;10.128;2023-08-06T08:12:35;14.30;99.90
6377;DHT22;3221;48.858;10.128;2023-08-06T08:15:02;14.30;99.90
6377;DHT22;3221;48.858;10.128;2023-08-06T08:17:30;14.20;99.90
6377;DHT22;3221;48.858;10.128;2023-08-06T08:19:57;14.20;99.90
6377;DHT22;3221;48.858;10.128;2023-08-06T08:22:24;14.20;99.90
6377;DHT22;3221;48.858;10.128;2023-08-06T08:24:51;14.20;99.90
6377;DHT22;3221;48.858;10.128;2023-08-06T08:27:18;14.20;99.90
6377;DHT22;3221;48.858;10.128;2023-08-06T08:29:44;14.10;99.90
6377;DHT22;3221;48.858;10.128;2023-08-06T08:32:11;14.20;99.90
6377;DHT22;3221;48.858;10.128;2023-08-06T08:34:38;14.20;99.90
6377;DHT22;3221;48.858;10.128;2023-08-06T08:37:05;14.10;99.90
6377;DHT22;3221;48.858;10.128;2023-08-06T08:39:32;14.10;99.90
6377;DHT22;3221;48.858;10.128;2023-08-06T08:41:59;14.10;99.90
6377;DHT22;3221;48.858;10.128;2023-08-06T08:44:28;14.00;99.90
6377;DHT22;3221;48.858;10.128;2023-08-06T08:46:56;14.00;99.90
6377;DHT22;3221;48.858;10.128;2023-08-06T08:49:24;14.00;99.90
6377;DHT22;3221;48.858;10.128;2023-08-06T08:51:53;14.10;99.90
6377;DHT22;3221;48.858;10.128;2023-08-06T08:54:23;14.10;99.90
6377;DHT22;3221;48.858;10.128;2023-08-06T08:56:51;14.20;99.90
6377;DHT22;3221;48.858;10.128;2023-08-06T08:59:18;14.10;99.90
6377;DHT22;3221;48.858;10.128;2023-08-06T09:01:46;14.10;99.90
6377;DHT22;3221;48.858;10.128;2023-08-06T09:04:17;14.10;99.90
6377;DHT22;3221;48.858;10.128;2023-08-06T09:06:47;14.10;99.90
6377;DHT22;3221;48.858;10.128;2023-08-06T09:09:35;14.10;99.90
6377;DHT22;3221;48.858;10.128;2023-08-06T09:12:14;14.20;99.90
6377;DHT22;3221;48.858;10.128;2023-08-06T09:14:41;14.20;99.90
6377;DHT22;3221;48.858;10.128;2023-08-06T09:17:09;14.30;99.90
6377;DHT22;3221;48.858;10.128;2023-08-06T09:19:42;14.20;99.90
6377;DHT22;3221;48.858;10.128;2023-08-06T09:22:12;14.30;99.90
6377;DHT22;3221;48.858;10.128;2023-08-06T09:24:43;14.20;99.90
6377;DHT22;3221;48.858;10.128;2023-08-06T09:27:11;14.20;99.90
6377;DHT22;3221;48.858;10.128;2023-08-06T09:29:41;14.20;99.90
6377;DHT22;3221;48.858;10.128;2023-08-06T09:32:09;14.20;99.90
6377;DHT22;3221;48.858;10.128;2023-08-06T09:34:39;14.20;99.90
6377;DHT22;3221;48.858;10.128;2023-08-06T09:37:09;14.30;99.90
6377;DHT22;3221;48.858;10.128;2023-08-06T09:39:40;14.10;99.90
6377;DHT22;3221;48.858;10.128;2023-08-06T09:42:09;14.20;99.90
6377;DHT22;3221;48.858;10.128;2023-08-06T09:44:36;14.20;99.90
6377;DHT22;3221;48.858;10.128;2023-08-06T09:47:07;14.30;99.90
6377;DHT22;3221;48.858;10.128;2023-08-06T09:52:01;14.30;99.90
6377;DHT22;3221;48.858;10.128;2023-08-06T09:54:28;14.30;99.90
6377;DHT22;3221;48.858;10.128;2023-08-06T09:56:57;14.20;99.90
6377;DHT22;3221;48.858;10.128;2023-08-06T09:59:24;14.20;99.90
6377;DHT22;3221;48.858;10.128;2023-08-06T10:01:54;14.40;99.90
6377;DHT22;3221;48.858;10.128;2023-08-06T10:04:23;14.10;99.90
6377;DHT22;3221;48.858;10.128;2023-08-06T10:06:56;14.20;99.90
6377;DHT22;3221;48.858;10.128;2023-08-06T10:09:24;14.20;99.90
6377;DHT22;3221;48.858;10.128;2023-08-06T10:11:51;14.20;99.90
6377;DHT22;3221;48.858;10.128;2023-08-06T10:14:25;14.20;99.90
6377;DHT22;3221;48.858;10.128;2023-08-06T10:16:54;14.40;99.90
6377;DHT22;3221;48.858;10.128;2023-08-06T10:19:24;14.30;99.90
6377;DHT22;3221;48.858;10.128;2023-08-06T10:24:52;14.30;99.90
6377;DHT22;3221;48.858;10.128;2023-08-06T10:27:23;14.30;99.90
6377;DHT22;3221;48.858;10.128;2023-08-06T10:29:54;14.40;99.90
6377;DHT22;3221;48.858;10.128;2023-08-06T10:32:47;14.40;99.90
6377;DHT22;3221;48.858;10.128;2023-08-06T10:38:11;14.20;99.90
6377;DHT22;3221;48.858;10.128;2023-08-06T10:40:48;14.20;99.90
6377;DHT22;3221;48.858;10.128;2023-08-06T10:43:29;14.30;99.90
6377;DHT22;3221;48.858;10.128;2023-08-06T10:45:58;14.20;99.90
6377;DHT22;3221;48.858;10.128;2023-08-06T10:48:38;14.30;99.90
6377;DHT22;3221;48.858;10.128;2023-08-06T10:51:13;14.30;99.90
6377;DHT22;3221;48.858;10.128;2023-08-06T10:53:50;14.40;99.90
6377;DHT22;3221;48.858;10.128;2023-08-06T10:56:19;14.30;99.90
6377;DHT22;3221;48.858;10.128;2023-08-06T10:58:47;14.30;99.90
6377;DHT22;3221;48.858;10.128;2023-08-06T11:01:14;14.30;99.90
6377;DHT22;3221;48.858;10.128;2023-08-06T11:03:46;14.30;99.90
6377;DHT22;3221;48.858;10.128;2023-08-06T11:06:19;14.40;99.90
6377;DHT22;3221;48.858;10.128;2023-08-06T11:08:49;14.40;99.90
6377;DHT22;3221;48.858;10.128;2023-08-06T11:11:17;14.40;99.90
6377;DHT22;3221;48.858;10.128;2023-08-06T11:13:45;14.40;99.90
6377;DHT22;3221;48.858;10.128;2023-08-06T11:16:14;14.40;99.90
6377;DHT22;3221;48.858;10.128;2023-08-06T11:18:42;14.30;99.90
6377;DHT22;3221;48.858;10.128;2023-08-06T11:21:09;14.30;99.90
6377;DHT22;3221;48.858;10.128;2023-08-06T11:23:36;14.30;99.90
6377;DHT22;3221;48.858;10.128;2023-08-06T11:26:03;14.20;99.90
6377;DHT22;3221;48.858;10.128;2023-08-06T11:28:30;14.30;99.90
6377;DHT22;3221;48.858;10.128;2023-08-06T11:30:58;14.50;99.90
6377;DHT22;3221;48.858;10.128;2023-08-06T11:33:28;14.30;99.90
6377;DHT22;3221;48.858;10.128;2023-08-06T11:35:56;14.40;99.90
6377;DHT22;3221;48.858;10.128;2023-08-06T11:38:30;14.30;99.90
6377;DHT22;3221;48.858;10.128;2023-08-06T11:40:57;14.20;99.90
6377;DHT22;3221;48.858;10.128;2023-08-06T11:43:24;14.30;99.90
6377;DHT22;3221;48.858;10.128;2023-08-06T11:45:51;14.30;99.90
6377;DHT22;3221;48.858;10.128;2023-08-06T11:48:20;14.30;99.90
6377;DHT22;3221;48.858;10.128;2023-08-06T11:50:47;14.30;99.90
6377;DHT22;3221;48.858;10.128;2023-08-06T11:53:14;14.20;99.90
6377;DHT22;3221;48.858;10.128;2023-08-06T11:55:42;14.30;99.90
6377;DHT22;3221;48.858;10.128;2023-08-06T11:58:10;14.30;99.90
6377;DHT22;3221;48.858;10.128;2023-08-06T12:00:38;14.30;99.90
6377;DHT22;3221;48.858;10.128;2023-08-06T12:03:05;14.20;99.90
6377;DHT22;3221;48.858;10.128;2023-08-06T12:05:33;14.20;99.90
6377;DHT22;3221;48.858;10.128;2023-08-06T12:08:01;14.20;99.90
6377;DHT22;3221;48.858;10.128;2023-08-06T12:10:30;14.20;99.90
6377;DHT22;3221;48.858;10.128;2023-08-06T12:12:57;14.20;99.90
6377;DHT22;3221;48.858;10.128;2023-08-06T12:15:24;14.20;99.90
6377;DHT22;3221;48.858;10.128;2023-08-06T12:17:51;14.00;99.90
6377;DHT22;3221;48.858;10.128;2023-08-06T12:20:18;14.10;99.90
6377;DHT22;3221;48.858;10.128;2023-08-06T12:22:45;14.10;99.90
6377;DHT22;3221;48.858;10.128;2023-08-06T12:25:13;14.20;99.90
6377;DHT22;3221;48.858;10.128;2023-08-06T12:27:44;14.30;99.90
6377;DHT22;3221;48.858;10.128;2023-08-06T12:30:12;14.10;99.90
6377;DHT22;3221;48.858;10.128;2023-08-06T12:32:40;14.10;99.90
6377;DHT22;3221;48.858;10.128;2023-08-06T12:35:08;14.00;99.90
6377;DHT22;3221;48.858;10.128;2023-08-06T12:37:35;14.10;99.90
6377;DHT22;3221;48.858;10.128;2023-08-06T12:40:03;14.10;99.90
6377;DHT22;3221;48.858;10.128;2023-08-06T12:42:50;14.10;99.90
6377;DHT22;3221;48.858;10.128;2023-08-06T12:45:19;14.10;99.90
6377;DHT22;3221;48.858;10.128;2023-08-06T12:47:48;14.10;99.90
6377;DHT22;3221;48.858;10.128;2023-08-06T12:50:16;14.00;99.90
6377;DHT22;3221;48.858;10.128;2023-08-06T12:52:44;14.00;99.90
6377;DHT22;3221;48.858;10.128;2023-08-06T12:55:11;14.10;99.90
6377;DHT22;3221;48.858;10.128;2023-08-06T12:57:38;14.00;99.90
6377;DHT22;3221;48.858;10.128;2023-08-06T13:00:27;13.90;99.90
6377;DHT22;3221;48.858;10.128;2023-08-06T13:02:54;13.90;99.90
6377;DHT22;3221;48.858;10.128;2023-08-06T13:05:21;13.90;99.90
6377;DHT22;3221;48.858;10.128;2023-08-06T13:07:48;14.00;99.90
6377;DHT22;3221;48.858;10.128;2023-08-06T13:10:15;13.90;99.90
6377;DHT22;3221;48.858;10.128;2023-08-06T13:12:43;13.80;99.90
6377;DHT22;3221;48.858;10.128;2023-08-06T13:15:10;13.70;99.90
6377;DHT22;3221;48.858;10.128;2023-08-06T13:17:37;13.70;99.90
6377;DHT22;3221;48.858;10.128;2023-08-06T13:20:05;13.70;99.90
6377;DHT22;3221;48.858;10.128;2023-08-06T13:22:32;13.80;99.90
6377;DHT22;3221;48.858;10.128;2023-08-06T13:24:59;13.70;99.90
6377;DHT22;3221;48.858;10.128;2023-08-06T13:27:26;13.70;99.90
6377;DHT22;3221;48.858;10.128;2023-08-06T13:29:53;13.70;99.90
6377;DHT22;3221;48.858;10.128;2023-08-06T13:32:20;13.70;99.90
6377;DHT22;3221;48.858;10.128;2023-08-06T13:34:47;13.90;99.90
6377;DHT22;3221;48.858;10.128;2023-08-06T13:37:14;13.80;99.90
6377;DHT22;3221;48.858;10.128;2023-08-06T13:39:41;13.70;99.90
6377;DHT22;3221;48.858;10.128;2023-08-06T13:42:08;13.60;99.90
6377;DHT22;3221;48.858;10.128;2023-08-06T13:44:35;13.70;99.90
6377;DHT22;3221;48.858;10.128;2023-08-06T13:47:03;13.70;99.90
6377;DHT22;3221;48.858;10.128;2023-08-06T13:49:30;13.60;99.90
6377;DHT22;3221;48.858;10.128;2023-08-06T13:51:57;13.70;99.90
6377;DHT22;3221;48.858;10.128;2023-08-06T13:54:44;13.60;99.90
6377;DHT22;3221;48.858;10.128;2023-08-06T13:57:10;13.80;99.90
6377;DHT22;3221;48.858;10.128;2023-08-06T13:59:38;13.60;99.90
6377;DHT22;3221;48.858;10.128;2023-08-06T14:02:05;13.80;99.90
6377;DHT22;3221;48.858;10.128;2023-08-06T14:04:32;13.60;99.90
6377;DHT22;3221;48.858;10.128;2023-08-06T14:07:00;13.50;99.90
6377;DHT22;3221;48.858;10.128;2023-08-06T14:09:26;13.70;99.90
6377;DHT22;3221;48.858;10.128;2023-08-06T14:11:54;13.70;99.90
6377;DHT22;3221;48.858;10.128;2023-08-06T14:14:21;13.70;99.90
6377;DHT22;3221;48.858;10.128;2023-08-06T14:16:53;13.70;99.90
6377;DHT22;3221;48.858;10.128;2023-08-06T14:19:21;13.70;99.90
6377;DHT22;3221;48.858;10.128;2023-08-06T14:21:49;13.70;99.90
6377;DHT22;3221;48.858;10.128;2023-08-06T14:24:18;13.70;99.90
6377;DHT22;3221;48.858;10.128;2023-08-06T14:26:45;13.60;99.90
6377;DHT22;3221;48.858;10.128;2023-08-06T14:29:12;13.80;99.90
6377;DHT22;3221;48.858;10.128;2023-08-06T14:31:41;13.70;99.90
6377;DHT22;3221;48.858;10.128;2023-08-06T14:34:08;13.80;99.90
6377;DHT22;3221;48.858;10.128;2023-08-06T14:36:35;13.70;99.90
6377;DHT22;3221;48.858;10.128;2023-08-06T14:39:02;13.70;99.90
6377;DHT22;3221;48.858;10.128;2023-08-06T14:41:29;13.70;99.90
6377;DHT22;3221;48.858;10.128;2023-08-06T14:43:56;13.70;99.90
6377;DHT22;3221;48.858;10.128;2023-08-06T14:46:23;13.80;99.90
6377;DHT22;3221;48.858;10.128;2023-08-06T14:48:50;13.70;99.90
6377;DHT22;3221;48.858;10.128;2023-08-06T14:51:17;13.70;99.90
6377;DHT22;3221;48.858;10.128;2023-08-06T14:53:46;13.70;99.90
6377;DHT22;3221;48.858;10.128;2023-08-06T14:56:13;13.70;99.90
6377;DHT22;3221;48.858;10.128;2023-08-06T14:58:40;13.70;99.90
6377;DHT22;3221;48.858;10.128;2023-08-06T15:01:08;13.70;99.90
6377;DHT22;3221;48.858;10.128;2023-08-06T15:03:35;13.70;99.90
6377;DHT22;3221;48.858;10.128;2023-08-06T15:06:02;13.70;99.90
6377;DHT22;3221;48.858;10.128;2023-08-06T15:08:29;13.70;99.90
6377;DHT22;3221;48.858;10.128;2023-08-06T15:10:56;13.60;99.90
6377;DHT22;3221;48.858;10.128;2023-08-06T15:13:23;13.60;99.90
6377;DHT22;3221;48.858;10.128;2023-08-06T15:15:50;13.60;99.90
6377;DHT22;3221;48.858;10.128;2023-08-06T15:18:17;13.60;99.90
6377;DHT22;3221;48.858;10.128;2023-08-06T15:20:44;13.80;99.90
6377;DHT22;3221;48.858;10.128;2023-08-06T15:23:11;13.70;99.90
6377;DHT22;3221;48.858;10.128;2023-08-06T15:25:38;13.60;99.90
6377;DHT22;3221;48.858;10.128;2023-08-06T15:28:04;13.70;99.90
6377;DHT22;3221;48.858;10.128;2023-08-06T15:30:33;13.60;99.90
6377;DHT22;3221;48.858;10.128;2023-08-06T15:33:00;13.60;99.90
6377;DHT22;3221;48.858;10.128;2023-08-06T15:35:27;13.50;99.90
6377;DHT22;3221;48.858;10.128;2023-08-06T15:37:53;13.50;99.90
6377;DHT22;3221;48.858;10.128;2023-08-06T15:40:20;13.50;99.90
6377;DHT22;3221;48.858;10.128;2023-08-06T15:42:48;13.50;99.90
6377;DHT22;3221;48.858;10.128;2023-08-06T15:45:15;13.50;99.90
6377;DHT22;3221;48.858;10.128;2023-08-06T15:47:42;13.60;99.90
6377;DHT22;3221;48.858;10.128;2023-08-06T15:50:10;13.60;99.90
6377;DHT22;3221;48.858;10.128;2023-08-06T15:52:37;13.60;99.90
6377;DHT22;3221;48.858;10.128;2023-08-06T15:55:04;13.50;99.90
6377;DHT22;3221;48.858;10.128;2023-08-06T15:57:33;13.50;99.90
6377;DHT22;3221;48.858;10.128;2023-08-06T16:00:01;13.50;99.90
6377;DHT22;3221;48.858;10.128;2023-08-06T16:02:37;13.70;99.90